createdAt,value
2017-11-04T00:00:01.847Z,10.6
2017-11-04T00:00:27.992Z,10.56
2017-11-04T00:00:54.141Z,10.64
2017-11-04T00:01:20.284Z,10.56
2017-11-04T00:01:46.428Z,10.59
2017-11-04T00:02:12.605Z,10.63
2017-11-04T00:02:38.749Z,10.53
2017-11-04T00:03:04.894Z,10.59
2017-11-04T00:03:31.037Z,10.56
2017-11-04T00:03:57.179Z,10.63
2017-11-04T00:04:23.328Z,10.49
2017-11-04T00:04:49.479Z,10.64
2017-11-04T00:05:15.620Z,10.64
2017-11-04T00:05:41.762Z,10.68
2017-11-04T00:06:07.928Z,10.63
2017-11-04T00:06:34.053Z,10.64
2017-11-04T00:07:00.203Z,10.68
2017-11-04T00:07:26.349Z,10.64
2017-11-04T00:07:52.498Z,10.67
2017-11-04T00:08:24.903Z,10.69
2017-11-04T02:26:34.556Z,10.28
2017-11-04T02:27:00.674Z,10.37
2017-11-04T02:27:27.153Z,10.31
2017-11-04T02:27:53.278Z,10.34
2017-11-04T02:28:19.391Z,10.26
2017-11-04T02:28:45.514Z,10.33
2017-11-04T02:29:11.632Z,10.33
2017-11-04T02:29:37.747Z,10.31
2017-11-04T02:30:03.870Z,10.35
2017-11-04T02:30:29.989Z,10.33
2017-11-04T02:30:56.109Z,10.33
2017-11-04T02:31:22.224Z,10.33
2017-11-04T02:31:48.345Z,10.3
2017-11-04T02:32:14.470Z,10.31
2017-11-04T02:32:40.586Z,10.26
2017-11-04T02:33:06.704Z,10.28
2017-11-04T02:33:32.816Z,10.28
2017-11-04T02:33:58.950Z,10.3
2017-11-04T02:34:25.061Z,10.22
2017-11-04T02:34:51.182Z,10.25
2017-11-04T02:35:17.307Z,10.33
2017-11-04T02:35:43.424Z,10.33
2017-11-04T02:36:09.541Z,10.33
2017-11-04T02:36:35.659Z,10.26
2017-11-04T02:37:01.783Z,10.25
2017-11-04T02:37:27.906Z,10.28
2017-11-04T02:37:54.021Z,10.28
2017-11-04T02:38:20.147Z,10.25
2017-11-04T02:38:46.264Z,10.25
2017-11-04T02:39:12.378Z,10.31
2017-11-04T02:39:38.501Z,10.33
2017-11-04T02:40:04.619Z,10.28
2017-11-04T02:40:30.771Z,10.33
2017-11-04T02:40:56.898Z,10.3
2017-11-04T02:41:23.009Z,10.23
2017-11-04T02:41:49.127Z,10.3
2017-11-04T02:42:15.248Z,10.3
2017-11-04T02:42:41.362Z,10.25
2017-11-04T02:43:07.481Z,10.23
2017-11-04T02:43:33.601Z,10.23
2017-11-04T02:44:00.005Z,10.16
2017-11-04T02:44:26.126Z,10.26
2017-11-04T02:44:52.243Z,10.28
2017-11-04T02:45:18.363Z,10.26
2017-11-04T02:45:44.488Z,10.26
2017-11-04T02:46:10.603Z,10.28
2017-11-04T02:46:36.727Z,10.33
2017-11-04T02:47:02.859Z,10.33
2017-11-04T02:47:28.980Z,10.31
2017-11-04T02:47:55.106Z,10.2
2017-11-04T02:48:21.220Z,10.2
2017-11-04T02:48:47.340Z,10.26
2017-11-04T02:49:13.452Z,10.23
2017-11-04T02:49:39.575Z,10.22
2017-11-04T02:50:05.697Z,10.26
2017-11-04T02:50:31.834Z,10.26
2017-11-04T02:50:57.960Z,10.26
2017-11-04T02:51:24.074Z,10.25
2017-11-04T02:51:50.205Z,10.19
2017-11-04T02:52:16.322Z,10.17
2017-11-04T02:52:42.437Z,10.15
2017-11-04T02:53:08.555Z,10.2
2017-11-04T02:53:34.693Z,10.15
2017-11-04T02:54:00.812Z,10.17
2017-11-04T02:54:26.945Z,10.22
2017-11-04T02:54:53.062Z,10.19
2017-11-04T02:55:19.193Z,10.22
2017-11-04T02:55:45.315Z,10.15
2017-11-04T02:56:11.436Z,10.2
2017-11-04T02:56:37.552Z,10.07
2017-11-04T02:57:03.679Z,10.2
2017-11-04T02:57:29.802Z,10.23
2017-11-04T02:57:55.942Z,10.12
2017-11-04T02:58:22.069Z,10.15
2017-11-04T02:58:48.212Z,10.19
2017-11-04T02:59:14.323Z,10.2
2017-11-04T02:59:40.447Z,10.2
2017-11-04T03:00:06.562Z,10.2
2017-11-04T03:00:32.686Z,10.17
2017-11-04T03:00:58.798Z,10.17
2017-11-04T03:01:24.921Z,10.16
2017-11-04T03:01:51.073Z,10.16
2017-11-04T03:02:17.466Z,10.1
2017-11-04T03:02:44.198Z,10.05
2017-11-04T03:03:10.314Z,10.1
2017-11-04T03:03:36.433Z,9.99
2017-11-04T03:04:02.558Z,9.99
2017-11-04T03:04:28.671Z,10.04
2017-11-04T03:04:54.800Z,10.07
2017-11-04T03:05:20.911Z,10.07
2017-11-04T03:05:47.034Z,10.07
2017-11-04T03:06:13.148Z,10.02
2017-11-04T03:06:39.273Z,9.92
2017-11-04T03:07:05.397Z,10.02
2017-11-04T03:07:31.511Z,9.97
2017-11-04T03:07:57.629Z,9.98
2017-11-04T03:08:23.745Z,9.99
2017-11-04T03:08:49.867Z,9.92
2017-11-04T03:09:15.982Z,9.89
2017-11-04T03:09:42.096Z,9.91
2017-11-04T03:10:08.219Z,9.92
2017-11-04T03:10:34.341Z,10.02
2017-11-04T03:11:00.461Z,9.98
2017-11-04T03:11:26.583Z,9.94
2017-11-04T03:11:52.698Z,9.95
2017-11-04T03:12:18.828Z,9.98
2017-11-04T03:12:44.942Z,9.99
2017-11-04T03:13:11.065Z,9.98
2017-11-04T03:13:37.184Z,9.92
2017-11-04T03:14:03.308Z,9.95
2017-11-04T03:14:29.425Z,9.92
2017-11-04T03:14:55.545Z,9.97
2017-11-04T03:15:21.664Z,9.91
2017-11-04T03:15:47.788Z,10.02
2017-11-04T03:16:13.896Z,10.02
2017-11-04T03:16:40.018Z,9.98
2017-11-04T03:17:06.132Z,9.99
2017-11-04T03:17:34.113Z,9.99
2017-11-04T03:18:00.227Z,9.97
2017-11-04T03:18:26.347Z,9.91
2017-11-04T03:18:52.472Z,9.98
2017-11-04T03:19:18.591Z,9.87
2017-11-04T03:19:44.704Z,9.94
2017-11-04T03:20:10.823Z,9.99
2017-11-04T03:20:36.937Z,10.02
2017-11-04T03:21:03.057Z,10.01
2017-11-04T03:21:29.189Z,9.99
2017-11-04T03:21:55.304Z,9.99
2017-11-04T03:22:21.432Z,9.94
2017-11-04T03:22:47.553Z,10.02
2017-11-04T03:23:13.668Z,10.04
2017-11-04T03:23:39.790Z,10.02
2017-11-04T03:24:05.907Z,9.94
2017-11-04T03:24:32.022Z,9.99
2017-11-04T03:24:58.150Z,9.99
2017-11-04T03:25:24.261Z,9.95
2017-11-04T03:25:50.383Z,9.95
2017-11-04T03:26:16.507Z,10.01
2017-11-04T03:26:42.622Z,9.99
2017-11-04T03:27:08.742Z,9.97
2017-11-04T03:27:34.867Z,10.01
2017-11-04T03:28:00.981Z,9.91
2017-11-04T03:28:27.104Z,9.92
2017-11-04T03:28:53.246Z,9.91
2017-11-04T03:29:19.363Z,9.91
2017-11-04T03:29:45.484Z,9.94
2017-11-04T03:30:11.601Z,9.92
2017-11-04T03:30:37.717Z,9.95
2017-11-04T03:31:03.840Z,9.83
2017-11-04T03:31:29.955Z,9.92
2017-11-04T03:31:56.075Z,9.92
2017-11-04T03:32:22.198Z,9.95
2017-11-04T03:32:48.312Z,9.95
2017-11-04T03:33:14.436Z,9.97
2017-11-04T03:33:40.553Z,9.99
2017-11-04T03:34:06.675Z,10.01
2017-11-04T03:34:32.808Z,9.97
2017-11-04T03:34:58.926Z,9.95
2017-11-04T03:35:25.050Z,10.04
2017-11-04T03:35:51.173Z,9.95
2017-11-04T03:36:17.289Z,9.91
2017-11-04T03:36:43.917Z,9.92
2017-11-04T03:37:09.961Z,9.91
2017-11-04T03:37:36.074Z,9.87
2017-11-04T03:38:02.225Z,9.83
2017-11-04T03:38:28.342Z,9.86
2017-11-04T03:38:54.460Z,9.86
2017-11-04T03:39:20.584Z,9.84
2017-11-04T03:39:46.719Z,9.83
2017-11-04T03:40:12.835Z,9.77
2017-11-04T03:40:38.956Z,9.82
2017-11-04T03:41:05.070Z,9.8
2017-11-04T03:41:31.187Z,9.73
2017-11-04T03:41:57.308Z,9.8
2017-11-04T03:42:23.431Z,9.77
2017-11-04T03:42:49.554Z,9.86
2017-11-04T03:43:15.695Z,9.8
2017-11-04T03:43:41.813Z,9.83
2017-11-04T03:44:07.938Z,9.86
2017-11-04T03:44:34.054Z,9.82
2017-11-04T03:45:00.179Z,9.86
2017-11-04T03:45:26.308Z,9.89
2017-11-04T03:45:52.431Z,9.82
2017-11-04T03:46:18.556Z,9.87
2017-11-04T03:46:45.990Z,9.98
2017-11-04T03:47:12.104Z,9.99
2017-11-04T03:47:38.230Z,9.99
2017-11-04T03:48:04.372Z,9.99
2017-11-04T03:48:30.486Z,9.98
2017-11-04T03:48:56.610Z,9.99
2017-11-04T03:49:22.725Z,9.98
2017-11-04T03:49:48.859Z,9.97
2017-11-04T03:50:14.982Z,10.05
2017-11-04T03:50:41.100Z,9.97
2017-11-04T03:51:07.245Z,9.95
2017-11-04T03:51:33.360Z,9.95
2017-11-04T03:51:59.483Z,10.04
2017-11-04T03:52:25.603Z,9.95
2017-11-04T03:52:51.734Z,9.94
2017-11-04T03:53:17.848Z,10.04
2017-11-04T03:53:43.963Z,10.04
2017-11-04T03:54:10.089Z,10.01
2017-11-04T03:54:36.201Z,9.97
2017-11-04T03:55:02.322Z,10.02
2017-11-04T03:55:28.440Z,9.94
2017-11-04T03:55:54.563Z,9.99
2017-11-04T03:56:20.678Z,10.01
2017-11-04T03:56:46.797Z,9.95
2017-11-04T03:57:12.921Z,10.01
2017-11-04T03:57:39.065Z,9.97
2017-11-04T03:58:05.180Z,9.94
2017-11-04T03:58:31.295Z,9.94
2017-11-04T03:58:57.421Z,9.97
2017-11-04T03:59:23.535Z,9.99
2017-11-04T03:59:49.658Z,9.97
2017-11-04T04:00:15.781Z,9.95
2017-11-04T04:00:41.921Z,9.94
2017-11-04T04:01:08.044Z,9.87
2017-11-04T04:01:34.154Z,9.91
2017-11-04T04:02:00.272Z,9.92
2017-11-04T04:02:26.399Z,9.95
2017-11-04T04:02:52.512Z,9.92
2017-11-04T04:03:18.633Z,9.94
2017-11-04T04:03:44.771Z,9.99
2017-11-04T04:04:10.889Z,9.99
2017-11-04T04:04:37.021Z,10.01
2017-11-04T04:05:03.144Z,9.99
2017-11-04T04:05:29.261Z,9.98
2017-11-04T04:05:55.376Z,9.99
2017-11-04T04:06:21.504Z,9.95
2017-11-04T04:06:47.621Z,9.95
2017-11-04T04:07:13.737Z,10.01
2017-11-04T04:07:39.855Z,9.98
2017-11-04T04:08:05.972Z,9.95
2017-11-04T04:08:32.264Z,9.95
2017-11-04T04:08:58.593Z,9.95
2017-11-04T04:09:24.712Z,9.94
2017-11-04T04:09:50.834Z,9.95
2017-11-04T04:10:16.957Z,9.99
2017-11-04T04:10:43.078Z,10.04
2017-11-04T04:11:09.261Z,9.98
2017-11-04T04:11:35.387Z,9.95
2017-11-04T04:12:01.526Z,9.99
2017-11-04T04:12:27.636Z,9.98
2017-11-04T04:12:53.757Z,9.95
2017-11-04T04:13:19.878Z,9.98
2017-11-04T04:13:45.994Z,9.95
2017-11-04T04:14:12.119Z,9.98
2017-11-04T04:14:38.231Z,9.97
2017-11-04T04:15:04.337Z,9.95
2017-11-04T04:15:30.452Z,10.04
2017-11-04T04:15:56.573Z,9.95
2017-11-04T04:16:22.697Z,9.99
2017-11-04T04:16:48.812Z,9.98
2017-11-04T04:17:14.940Z,10.04
2017-11-04T04:17:41.064Z,9.94
2017-11-04T04:18:07.188Z,10.04
2017-11-04T04:18:33.302Z,10.07
2017-11-04T04:18:59.426Z,10.04
2017-11-04T04:19:25.544Z,9.98
2017-11-04T04:19:51.659Z,9.98
2017-11-04T04:20:17.958Z,10.09
2017-11-04T04:20:44.077Z,10.04
2017-11-04T04:21:10.193Z,10.04
2017-11-04T04:21:36.312Z,10.07
2017-11-04T04:22:02.426Z,10.07
2017-11-04T04:22:28.551Z,9.94
2017-11-04T04:22:54.669Z,10.05
2017-11-04T04:23:20.786Z,9.99
2017-11-04T04:23:46.920Z,9.97
2017-11-04T04:24:13.043Z,9.95
2017-11-04T04:24:39.159Z,9.92
2017-11-04T04:25:05.331Z,9.91
2017-11-04T04:25:31.392Z,9.97
2017-11-04T04:25:57.511Z,9.83
2017-11-04T04:26:23.625Z,9.89
2017-11-04T04:26:49.750Z,9.92
2017-11-04T04:27:15.868Z,9.92
2017-11-04T04:27:42.047Z,9.92
2017-11-04T04:28:08.173Z,9.82
2017-11-04T04:28:34.285Z,9.95
2017-11-04T04:29:00.428Z,9.86
2017-11-04T04:29:26.523Z,9.83
2017-11-04T04:29:52.642Z,9.84
2017-11-04T04:30:18.776Z,9.79
2017-11-04T04:30:44.895Z,9.94
2017-11-04T04:31:11.029Z,9.86
2017-11-04T04:31:37.152Z,9.79
2017-11-04T04:32:03.274Z,9.84
2017-11-04T04:32:29.396Z,9.89
2017-11-04T04:32:55.517Z,9.8
2017-11-04T04:33:21.637Z,9.87
2017-11-04T04:33:47.773Z,9.84
2017-11-04T04:34:13.920Z,9.79
2017-11-04T04:34:40.032Z,9.74
2017-11-04T04:35:06.156Z,9.65
2017-11-04T04:35:32.273Z,9.82
2017-11-04T04:35:58.399Z,9.73
2017-11-04T04:36:24.511Z,9.69
2017-11-04T04:36:50.627Z,9.74
2017-11-04T04:37:16.751Z,9.68
2017-11-04T04:37:42.875Z,9.62
2017-11-04T04:38:08.996Z,9.68
2017-11-04T04:38:35.108Z,9.74
2017-11-04T04:39:01.228Z,9.66
2017-11-04T04:39:27.344Z,9.64
2017-11-04T04:39:53.461Z,9.66
2017-11-04T04:40:19.577Z,9.66
2017-11-04T04:40:45.719Z,9.77
2017-11-04T04:41:11.839Z,9.72
2017-11-04T04:41:37.976Z,9.65
2017-11-04T04:42:04.099Z,9.72
2017-11-04T04:42:30.215Z,9.62
2017-11-04T04:42:56.334Z,9.59
2017-11-04T04:43:22.459Z,9.74
2017-11-04T04:43:48.572Z,9.61
2017-11-04T04:44:14.695Z,9.62
2017-11-04T04:44:40.815Z,9.74
2017-11-04T04:45:06.929Z,9.77
2017-11-04T04:45:33.047Z,9.69
2017-11-04T04:45:59.170Z,9.64
2017-11-04T04:46:25.292Z,9.65
2017-11-04T04:46:51.421Z,9.64
2017-11-04T04:47:17.545Z,9.64
2017-11-04T04:47:43.661Z,9.59
2017-11-04T04:48:09.781Z,9.66
2017-11-04T04:48:35.908Z,9.65
2017-11-04T04:49:02.018Z,9.73
2017-11-04T04:49:28.143Z,9.65
2017-11-04T04:49:54.264Z,9.65
2017-11-04T04:50:20.377Z,9.74
2017-11-04T04:50:46.498Z,9.65
2017-11-04T04:51:12.611Z,9.66
2017-11-04T04:51:38.730Z,9.68
2017-11-04T04:52:04.851Z,9.65
2017-11-04T04:52:30.969Z,9.72
2017-11-04T04:52:57.087Z,9.76
2017-11-04T04:53:23.198Z,9.79
2017-11-04T04:53:49.325Z,9.77
2017-11-04T04:54:15.445Z,9.79
2017-11-04T04:54:41.566Z,9.84
2017-11-04T04:55:07.692Z,9.79
2017-11-04T04:55:33.828Z,9.77
2017-11-04T04:55:59.944Z,9.77
2017-11-04T04:56:26.068Z,9.84
2017-11-04T04:56:52.190Z,9.79
2017-11-04T04:57:18.306Z,9.74
2017-11-04T04:57:44.416Z,9.76
2017-11-04T04:58:10.540Z,9.66
2017-11-04T04:58:36.653Z,9.66
2017-11-04T04:59:02.771Z,9.61
2017-11-04T04:59:28.895Z,9.64
2017-11-04T04:59:55.041Z,9.58
2017-11-04T05:00:21.164Z,9.72
2017-11-04T05:00:47.277Z,9.58
2017-11-04T05:01:13.400Z,9.62
2017-11-04T05:01:39.521Z,9.74
2017-11-04T05:02:05.638Z,9.68
2017-11-04T05:02:31.763Z,9.76
2017-11-04T05:02:57.875Z,9.77
2017-11-04T05:03:24.008Z,9.72
2017-11-04T05:03:50.121Z,9.59
2017-11-04T05:04:16.252Z,9.62
2017-11-04T05:04:42.378Z,9.68
2017-11-04T05:05:08.494Z,9.72
2017-11-04T05:05:34.618Z,9.76
2017-11-04T05:06:00.732Z,9.64
2017-11-04T05:06:26.857Z,9.77
2017-11-04T05:06:52.972Z,9.73
2017-11-04T05:07:19.111Z,9.59
2017-11-04T05:07:45.235Z,9.62
2017-11-04T05:08:11.402Z,9.72
2017-11-04T05:08:37.525Z,9.66
2017-11-04T05:09:03.641Z,9.74
2017-11-04T05:09:29.764Z,9.69
2017-11-04T05:09:55.881Z,9.69
2017-11-04T05:10:22.003Z,9.72
2017-11-04T05:10:48.148Z,9.62
2017-11-04T05:11:14.257Z,9.68
2017-11-04T05:11:40.393Z,9.72
2017-11-04T05:12:06.517Z,9.72
2017-11-04T05:12:32.640Z,9.72
2017-11-04T05:12:58.756Z,9.64
2017-11-04T05:13:24.882Z,9.62
2017-11-04T05:13:51.000Z,9.58
2017-11-04T05:14:17.123Z,9.62
2017-11-04T05:14:43.239Z,9.79
2017-11-04T05:15:09.357Z,9.64
2017-11-04T05:15:35.484Z,9.69
2017-11-04T05:16:01.595Z,9.73
2017-11-04T05:16:27.721Z,9.59
2017-11-04T05:16:53.834Z,9.59
2017-11-04T05:17:19.952Z,9.61
2017-11-04T05:17:46.064Z,9.62
2017-11-04T05:18:12.177Z,9.59
2017-11-04T05:18:38.301Z,9.64
2017-11-04T05:19:04.420Z,9.74
2017-11-04T05:19:30.541Z,9.64
2017-11-04T05:19:56.662Z,9.76
2017-11-04T05:20:22.787Z,9.65
2017-11-04T05:20:48.914Z,9.66
2017-11-04T05:21:15.041Z,9.65
2017-11-04T05:21:41.157Z,9.68
2017-11-04T05:22:07.274Z,9.65
2017-11-04T05:22:33.396Z,9.72
2017-11-04T05:22:59.520Z,9.73
2017-11-04T05:23:25.636Z,9.74
2017-11-04T05:23:51.744Z,9.77
2017-11-04T05:24:17.867Z,9.77
2017-11-04T05:24:43.982Z,9.79
2017-11-04T05:25:10.102Z,9.84
2017-11-04T05:25:36.242Z,9.77
2017-11-04T05:26:02.343Z,9.87
2017-11-04T05:26:28.464Z,9.8
2017-11-04T05:26:54.579Z,9.8
2017-11-04T05:27:20.716Z,9.83
2017-11-04T05:27:46.837Z,9.86
2017-11-04T05:28:12.961Z,9.83
2017-11-04T05:28:39.077Z,9.91
2017-11-04T05:29:05.187Z,9.89
2017-11-04T05:29:31.312Z,9.94
2017-11-04T05:29:57.427Z,9.92
2017-11-04T05:30:23.552Z,9.84
2017-11-04T05:30:49.667Z,9.91
2017-11-04T05:31:15.786Z,9.89
2017-11-04T05:31:41.910Z,9.82
2017-11-04T05:32:08.029Z,9.83
2017-11-04T05:32:34.161Z,9.84
2017-11-04T05:33:00.284Z,9.86
2017-11-04T05:33:26.402Z,9.8
2017-11-04T05:33:52.524Z,9.8
2017-11-04T05:34:18.641Z,9.83
2017-11-04T05:34:44.765Z,9.76
2017-11-04T05:35:10.883Z,9.8
2017-11-04T05:35:37.006Z,9.76
2017-11-04T05:36:03.122Z,9.84
2017-11-04T05:36:29.234Z,9.8
2017-11-04T05:36:55.357Z,9.8
2017-11-04T05:37:21.475Z,9.8
2017-11-04T05:37:47.597Z,9.83
2017-11-04T05:38:13.716Z,9.76
2017-11-04T05:38:39.827Z,9.82
2017-11-04T05:39:05.950Z,9.77
2017-11-04T05:39:32.073Z,9.8
2017-11-04T05:39:58.187Z,9.86
2017-11-04T05:40:24.312Z,9.76
2017-11-04T05:40:50.438Z,9.86
2017-11-04T05:41:16.549Z,9.79
2017-11-04T05:41:42.683Z,9.83
2017-11-04T05:42:08.808Z,9.72
2017-11-04T05:42:34.922Z,9.68
2017-11-04T05:43:01.038Z,9.66
2017-11-04T05:43:27.157Z,9.66
2017-11-04T05:43:53.273Z,9.61
2017-11-04T05:44:19.412Z,9.62
2017-11-04T05:44:45.540Z,9.62
2017-11-04T05:45:11.654Z,9.61
2017-11-04T05:45:37.777Z,9.64
2017-11-04T05:46:03.896Z,9.65
2017-11-04T05:46:30.011Z,9.5
2017-11-04T05:46:56.132Z,9.61
2017-11-04T05:47:22.267Z,9.58
2017-11-04T05:47:48.386Z,9.54
2017-11-04T05:48:14.504Z,9.68
2017-11-04T05:48:40.627Z,9.65
2017-11-04T05:49:06.742Z,9.65
2017-11-04T05:49:32.867Z,9.72
2017-11-04T05:49:58.984Z,9.62
2017-11-04T05:50:25.109Z,9.55
2017-11-04T05:50:51.226Z,9.62
2017-11-04T05:51:17.341Z,9.65
2017-11-04T05:51:43.467Z,9.64
2017-11-04T05:52:09.586Z,9.68
2017-11-04T05:52:35.723Z,9.64
2017-11-04T05:53:01.852Z,9.68
2017-11-04T05:53:27.963Z,9.68
2017-11-04T05:53:54.086Z,9.69
2017-11-04T05:54:20.196Z,9.66
2017-11-04T05:54:46.322Z,9.74
2017-11-04T05:55:12.436Z,9.65
2017-11-04T05:55:38.559Z,9.65
2017-11-04T05:56:04.682Z,9.68
2017-11-04T05:56:30.796Z,9.59
2017-11-04T05:56:56.915Z,9.66
2017-11-04T05:57:23.034Z,9.65
2017-11-04T05:57:49.159Z,9.69
2017-11-04T05:58:15.320Z,9.72
2017-11-04T05:58:41.426Z,9.79
2017-11-04T05:59:07.537Z,9.62
2017-11-04T05:59:33.661Z,9.74
2017-11-04T05:59:59.786Z,9.66
2017-11-04T06:00:25.898Z,9.64
2017-11-04T06:00:52.020Z,9.65
2017-11-04T06:01:18.139Z,9.61
2017-11-04T06:01:44.258Z,9.61
2017-11-04T06:02:10.383Z,9.62
2017-11-04T06:02:36.493Z,9.72
2017-11-04T06:03:02.613Z,9.69
2017-11-04T06:03:28.734Z,9.68
2017-11-04T06:03:54.849Z,9.66
2017-11-04T06:04:20.973Z,9.68
2017-11-04T06:04:47.110Z,9.64
2017-11-04T06:05:13.255Z,9.61
2017-11-04T06:05:39.362Z,9.65
2017-11-04T06:06:05.482Z,9.64
2017-11-04T06:06:31.605Z,9.64
2017-11-04T06:06:57.712Z,9.66
2017-11-04T06:07:23.837Z,9.58
2017-11-04T06:07:49.951Z,9.61
2017-11-04T06:08:16.073Z,9.64
2017-11-04T06:08:42.194Z,9.58
2017-11-04T06:09:08.314Z,9.56
2017-11-04T06:09:34.429Z,9.58
2017-11-04T06:10:00.554Z,9.65
2017-11-04T06:10:26.685Z,9.64
2017-11-04T06:10:52.805Z,9.56
2017-11-04T06:11:18.927Z,9.56
2017-11-04T06:11:45.053Z,9.58
2017-11-04T06:12:11.171Z,9.56
2017-11-04T06:12:37.306Z,9.58
2017-11-04T06:13:03.427Z,9.51
2017-11-04T06:13:29.548Z,9.62
2017-11-04T06:13:55.681Z,9.59
2017-11-04T06:14:21.780Z,9.61
2017-11-04T06:14:47.904Z,9.56
2017-11-04T06:15:14.024Z,9.62
2017-11-04T06:15:40.143Z,9.54
2017-11-04T06:16:06.257Z,9.61
2017-11-04T06:16:32.384Z,9.61
2017-11-04T06:16:58.501Z,9.58
2017-11-04T06:17:24.616Z,9.54
2017-11-04T06:17:50.753Z,9.5
2017-11-04T06:18:16.877Z,9.54
2017-11-04T06:18:42.989Z,9.59
2017-11-04T06:19:09.113Z,9.58
2017-11-04T06:19:35.229Z,9.59
2017-11-04T06:20:01.352Z,9.56
2017-11-04T06:20:27.465Z,9.56
2017-11-04T06:20:53.584Z,9.65
2017-11-04T06:21:19.702Z,9.66
2017-11-04T06:21:45.815Z,9.66
2017-11-04T06:22:11.933Z,9.62
2017-11-04T06:22:38.054Z,9.61
2017-11-04T06:23:04.175Z,9.59
2017-11-04T06:23:30.300Z,9.66
2017-11-04T06:23:56.440Z,9.62
2017-11-04T06:24:22.566Z,9.61
2017-11-04T06:24:48.672Z,9.62
2017-11-04T06:25:14.795Z,9.64
2017-11-04T06:25:40.913Z,9.66
2017-11-04T06:26:07.039Z,9.65
2017-11-04T06:26:33.168Z,9.65
2017-11-04T06:26:59.287Z,9.66
2017-11-04T06:27:25.406Z,9.64
2017-11-04T06:27:51.548Z,9.62
2017-11-04T06:28:17.668Z,9.59
2017-11-04T06:28:43.776Z,9.61
2017-11-04T06:29:09.895Z,9.68
2017-11-04T06:29:36.013Z,9.68
2017-11-04T06:30:02.135Z,9.69
2017-11-04T06:30:28.255Z,9.69
2017-11-04T06:30:54.377Z,9.69
2017-11-04T06:31:20.498Z,9.64
2017-11-04T06:31:46.609Z,9.76
2017-11-04T06:32:12.732Z,9.76
2017-11-04T06:32:38.846Z,9.77
2017-11-04T06:33:04.972Z,9.68
2017-11-04T06:33:31.089Z,9.76
2017-11-04T06:33:57.212Z,9.73
2017-11-04T06:34:23.332Z,9.77
2017-11-04T06:34:49.446Z,9.74
2017-11-04T06:35:15.566Z,9.73
2017-11-04T06:35:41.690Z,9.76
2017-11-04T06:36:07.813Z,9.73
2017-11-04T06:36:33.926Z,9.76
2017-11-04T06:37:00.050Z,9.65
2017-11-04T06:37:26.169Z,9.73
2017-11-04T06:37:52.290Z,9.65
2017-11-04T06:38:18.406Z,9.73
2017-11-04T06:38:44.524Z,9.77
2017-11-04T06:39:10.647Z,9.79
2017-11-04T06:39:36.766Z,9.8
2017-11-04T06:40:02.893Z,9.86
2017-11-04T06:40:29.011Z,9.86
2017-11-04T06:40:55.134Z,9.87
2017-11-04T06:41:21.252Z,9.84
2017-11-04T06:41:47.373Z,9.77
2017-11-04T06:42:13.511Z,9.79
2017-11-04T06:42:39.618Z,9.82
2017-11-04T06:43:05.731Z,9.83
2017-11-04T06:43:31.853Z,9.94
2017-11-04T06:43:57.970Z,9.86
2017-11-04T06:44:24.092Z,9.82
2017-11-04T06:44:50.210Z,9.86
2017-11-04T06:45:16.329Z,9.86
2017-11-04T06:45:42.448Z,9.83
2017-11-04T06:46:08.567Z,9.79
2017-11-04T06:46:34.687Z,9.83
2017-11-04T06:47:00.819Z,9.82
2017-11-04T06:47:26.944Z,9.86
2017-11-04T06:47:53.071Z,9.86
2017-11-04T06:48:19.173Z,9.77
2017-11-04T06:48:45.291Z,9.8
2017-11-04T06:49:11.409Z,9.87
2017-11-04T06:49:37.540Z,9.89
2017-11-04T06:50:03.648Z,9.82
2017-11-04T06:50:29.790Z,9.86
2017-11-04T06:50:55.924Z,9.83
2017-11-04T06:51:22.038Z,9.83
2017-11-04T06:51:48.155Z,9.68
2017-11-04T06:52:14.272Z,9.69
2017-11-04T06:52:40.394Z,9.73
2017-11-04T06:53:06.506Z,9.74
2017-11-04T06:53:32.626Z,9.72
2017-11-04T06:53:58.747Z,9.64
2017-11-04T06:54:24.869Z,9.64
2017-11-04T06:54:50.988Z,9.62
2017-11-04T06:55:17.112Z,9.61
2017-11-04T06:55:43.222Z,9.62
2017-11-04T06:56:09.340Z,9.61
2017-11-04T06:56:35.466Z,9.68
2017-11-04T06:57:01.578Z,9.65
2017-11-04T06:57:27.692Z,9.65
2017-11-04T06:57:53.819Z,9.58
2017-11-04T06:58:19.940Z,9.66
2017-11-04T06:58:46.056Z,9.74
2017-11-04T06:59:12.180Z,9.62
2017-11-04T06:59:38.302Z,9.68
2017-11-04T07:00:04.416Z,9.66
2017-11-04T07:00:30.536Z,9.77
2017-11-04T07:00:56.661Z,9.79
2017-11-04T07:01:22.767Z,9.76
2017-11-04T07:01:48.913Z,9.83
2017-11-04T07:02:15.035Z,9.84
2017-11-04T07:02:41.157Z,9.8
2017-11-04T07:03:07.281Z,9.92
2017-11-04T07:03:33.399Z,9.92
2017-11-04T07:03:59.520Z,9.79
2017-11-04T07:04:25.638Z,9.83
2017-11-04T07:04:51.751Z,9.84
2017-11-04T07:05:17.873Z,9.86
2017-11-04T07:05:43.993Z,9.82
2017-11-04T07:06:10.115Z,9.82
2017-11-04T07:06:36.229Z,9.84
2017-11-04T07:07:02.353Z,9.72
2017-11-04T07:07:28.474Z,9.61
2017-11-04T07:07:54.612Z,9.62
2017-11-04T07:08:20.730Z,9.58
2017-11-04T07:08:46.874Z,9.54
2017-11-04T07:09:12.989Z,9.59
2017-11-04T07:09:39.109Z,9.58
2017-11-04T07:10:05.233Z,9.66
2017-11-04T07:10:31.345Z,9.56
2017-11-04T07:10:57.471Z,9.61
2017-11-04T07:11:23.590Z,9.55
2017-11-04T07:11:49.711Z,9.66
2017-11-04T07:12:15.828Z,9.61
2017-11-04T07:12:41.949Z,9.68
2017-11-04T07:13:08.064Z,9.68
2017-11-04T07:13:34.189Z,9.66
2017-11-04T07:14:00.303Z,9.72
2017-11-04T07:14:26.418Z,9.76
2017-11-04T07:14:52.540Z,9.74
2017-11-04T07:15:18.659Z,9.84
2017-11-04T07:15:44.779Z,9.8
2017-11-04T07:16:10.905Z,9.95
2017-11-04T07:16:37.030Z,9.89
2017-11-04T07:17:03.150Z,9.86
2017-11-04T07:17:29.270Z,9.91
2017-11-04T07:17:55.384Z,9.98
2017-11-04T07:18:21.506Z,9.92
2017-11-04T07:18:47.622Z,9.92
2017-11-04T07:19:13.746Z,10.07
2017-11-04T07:19:39.861Z,9.97
2017-11-04T07:20:05.986Z,9.97
2017-11-04T07:20:32.098Z,10.01
2017-11-04T07:20:58.218Z,9.98
2017-11-04T07:21:24.340Z,10.04
2017-11-04T07:21:50.452Z,10.05
2017-11-04T07:22:16.565Z,10.02
2017-11-04T07:22:42.685Z,10.05
2017-11-04T07:23:08.802Z,10.09
2017-11-04T07:23:34.931Z,10.05
2017-11-04T07:24:01.050Z,10.04
2017-11-04T07:24:27.173Z,10.02
2017-11-04T07:24:53.290Z,10.15
2017-11-04T07:25:19.411Z,10.05
2017-11-04T07:25:45.532Z,10.07
2017-11-04T07:26:11.666Z,9.98
2017-11-04T07:26:37.776Z,9.97
2017-11-04T07:27:03.888Z,9.98
2017-11-04T07:27:30.014Z,9.89
2017-11-04T07:27:56.124Z,9.95
2017-11-04T07:28:22.245Z,9.98
2017-11-04T07:28:48.367Z,9.99
2017-11-04T07:29:14.486Z,9.97
2017-11-04T07:29:40.608Z,9.95
2017-11-04T07:30:06.732Z,9.99
2017-11-04T07:30:32.848Z,10.05
2017-11-04T07:30:58.975Z,10.12
2017-11-04T07:31:25.088Z,10.23
2017-11-04T07:31:51.206Z,10.19
2017-11-04T07:32:17.325Z,10.2
2017-11-04T07:32:43.444Z,10.23
2017-11-04T07:33:09.567Z,10.16
2017-11-04T07:33:35.684Z,10.2
2017-11-04T07:34:01.810Z,10.28
2017-11-04T07:34:27.931Z,10.2
2017-11-04T07:34:54.047Z,10.25
2017-11-04T07:35:20.170Z,10.34
2017-11-04T07:35:46.287Z,10.38
2017-11-04T07:36:12.410Z,10.3
2017-11-04T07:36:38.526Z,10.4
2017-11-04T07:37:04.649Z,10.42
2017-11-04T07:37:30.786Z,10.41
2017-11-04T07:37:56.902Z,10.38
2017-11-04T07:38:23.027Z,10.51
2017-11-04T07:38:49.145Z,10.49
2017-11-04T07:39:15.262Z,10.41
2017-11-04T07:39:41.382Z,10.42
2017-11-04T07:40:07.508Z,10.51
2017-11-04T07:40:33.620Z,10.44
2017-11-04T07:40:59.756Z,10.54
2017-11-04T07:41:25.865Z,10.51
2017-11-04T07:41:51.981Z,10.56
2017-11-04T07:42:18.119Z,10.59
2017-11-04T07:42:44.232Z,10.68
2017-11-04T07:43:10.349Z,10.67
2017-11-04T07:43:36.478Z,10.64
2017-11-04T07:44:02.599Z,10.64
2017-11-04T07:44:28.724Z,10.69
2017-11-04T07:44:54.838Z,10.75
2017-11-04T07:45:20.961Z,10.71
2017-11-04T07:45:47.083Z,10.74
2017-11-04T07:46:13.202Z,10.78
2017-11-04T07:46:39.319Z,10.81
2017-11-04T07:47:05.436Z,10.79
2017-11-04T07:47:31.560Z,10.84
2017-11-04T07:47:57.679Z,10.97
2017-11-04T07:48:23.797Z,10.94
2017-11-04T07:48:49.923Z,10.99
2017-11-04T07:49:16.045Z,10.93
2017-11-04T07:49:42.165Z,11.04
2017-11-04T07:50:08.288Z,10.97
2017-11-04T07:50:34.409Z,11.04
2017-11-04T07:51:00.521Z,11
2017-11-04T07:51:26.643Z,11.04
2017-11-04T07:51:52.758Z,10.94
2017-11-04T07:52:18.902Z,11.1
2017-11-04T07:52:45.017Z,11.12
2017-11-04T07:53:11.139Z,11.1
2017-11-04T07:53:37.254Z,11.04
2017-11-04T07:54:03.376Z,11
2017-11-04T07:54:29.507Z,10.92
2017-11-04T07:54:55.617Z,11.04
2017-11-04T07:55:21.741Z,11.04
2017-11-04T07:55:47.858Z,10.89
2017-11-04T07:56:13.985Z,10.78
2017-11-04T07:56:40.102Z,10.72
2017-11-04T07:57:06.225Z,10.79
2017-11-04T07:57:32.348Z,10.81
2017-11-04T07:57:58.481Z,10.84
2017-11-04T07:58:24.607Z,10.81
2017-11-04T07:58:50.730Z,10.86
2017-11-04T07:59:16.843Z,10.93
2017-11-04T07:59:42.965Z,10.89
2017-11-04T08:00:09.080Z,10.97
2017-11-04T08:00:35.198Z,11.02
2017-11-04T08:01:01.319Z,10.99
2017-11-04T08:01:27.467Z,11.07
2017-11-04T08:01:53.597Z,10.97
2017-11-04T08:02:19.710Z,11.17
2017-11-04T08:02:45.835Z,11.17